sensor_id;sensor_type;location;lat;lon;timestamp;P1;durP1;ratioP1;P2;durP2;ratioP2
77769;SDS011;66961;51.482;9.160;2024-02-14T00:02:01;5.10;;;2.27;;
77769;SDS011;66961;51.482;9.160;2024-02-14T00:04:26;6.20;;;2.30;;
77769;SDS011;66961;51.482;9.160;2024-02-14T00:06:51;4.00;;;2.30;;
77769;SDS011;66961;51.482;9.160;2024-02-14T00:09:16;4.23;;;1.93;;
77769;SDS011;66961;51.482;9.160;2024-02-14T00:11:42;6.00;;;2.23;;
77769;SDS011;66961;51.482;9.160;2024-02-14T00:14:07;4.83;;;2.07;;
77769;SDS011;66961;51.482;9.160;2024-02-14T00:16:32;4.90;;;2.27;;
77769;SDS011;66961;51.482;9.160;2024-02-14T00:18:58;6.50;;;2.20;;
77769;SDS011;66961;51.482;9.160;2024-02-14T00:21:23;4.95;;;2.17;;
77769;SDS011;66961;51.482;9.160;2024-02-14T00:23:48;6.55;;;2.45;;
77769;SDS011;66961;51.482;9.160;2024-02-14T00:26:14;6.20;;;2.13;;
77769;SDS011;66961;51.482;9.160;2024-02-14T00:28:39;6.60;;;2.07;;
77769;SDS011;66961;51.482;9.160;2024-02-14T00:31:05;6.30;;;2.10;;
77769;SDS011;66961;51.482;9.160;2024-02-14T00:33:30;6.47;;;2.30;;
77769;SDS011;66961;51.482;9.160;2024-02-14T00:35:56;9.10;;;2.47;;
77769;SDS011;66961;51.482;9.160;2024-02-14T00:38:21;3.53;;;2.10;;
77769;SDS011;66961;51.482;9.160;2024-02-14T00:40:46;5.50;;;2.47;;
77769;SDS011;66961;51.482;9.160;2024-02-14T00:43:11;4.43;;;1.93;;
77769;SDS011;66961;51.482;9.160;2024-02-14T00:45:37;5.40;;;2.33;;
77769;SDS011;66961;51.482;9.160;2024-02-14T00:48:02;5.82;;;2.63;;
77769;SDS011;66961;51.482;9.160;2024-02-14T00:50:27;5.95;;;2.15;;
77769;SDS011;66961;51.482;9.160;2024-02-14T00:52:53;5.67;;;2.40;;
77769;SDS011;66961;51.482;9.160;2024-02-14T00:55:18;5.00;;;2.40;;
77769;SDS011;66961;51.482;9.160;2024-02-14T00:57:43;5.07;;;1.90;;
77769;SDS011;66961;51.482;9.160;2024-02-14T01:00:08;5.60;;;2.33;;
77769;SDS011;66961;51.482;9.160;2024-02-14T01:02:34;4.78;;;2.47;;
77769;SDS011;66961;51.482;9.160;2024-02-14T01:04:59;6.17;;;2.13;;
77769;SDS011;66961;51.482;9.160;2024-02-14T01:07:24;3.93;;;2.10;;
77769;SDS011;66961;51.482;9.160;2024-02-14T01:09:50;5.70;;;2.40;;
77769;SDS011;66961;51.482;9.160;2024-02-14T01:12:15;4.23;;;1.70;;
77769;SDS011;66961;51.482;9.160;2024-02-14T01:14:40;3.28;;;1.63;;
77769;SDS011;66961;51.482;9.160;2024-02-14T01:17:06;4.17;;;1.53;;
77769;SDS011;66961;51.482;9.160;2024-02-14T01:19:31;5.50;;;1.87;;
77769;SDS011;66961;51.482;9.160;2024-02-14T01:21:56;3.87;;;1.83;;
77769;SDS011;66961;51.482;9.160;2024-02-14T01:24:21;3.00;;;1.63;;
77769;SDS011;66961;51.482;9.160;2024-02-14T01:26:47;4.10;;;1.87;;
77769;SDS011;66961;51.482;9.160;2024-02-14T01:29:12;5.27;;;1.97;;
77769;SDS011;66961;51.482;9.160;2024-02-14T01:31:37;6.20;;;1.60;;
77769;SDS011;66961;51.482;9.160;2024-02-14T01:34:02;4.57;;;1.80;;
77769;SDS011;66961;51.482;9.160;2024-02-14T01:36:28;5.33;;;2.37;;
77769;SDS011;66961;51.482;9.160;2024-02-14T01:38:53;3.33;;;1.80;;
77769;SDS011;66961;51.482;9.160;2024-02-14T01:41:19;5.15;;;1.73;;
77769;SDS011;66961;51.482;9.160;2024-02-14T01:43:44;5.22;;;2.00;;
77769;SDS011;66961;51.482;9.160;2024-02-14T01:46:10;4.20;;;1.67;;
77769;SDS011;66961;51.482;9.160;2024-02-14T01:48:35;3.58;;;1.58;;
77769;SDS011;66961;51.482;9.160;2024-02-14T01:51:01;4.47;;;1.83;;
77769;SDS011;66961;51.482;9.160;2024-02-14T01:53:28;5.88;;;1.90;;
77769;SDS011;66961;51.482;9.160;2024-02-14T01:55:54;5.47;;;1.70;;
77769;SDS011;66961;51.482;9.160;2024-02-14T01:58:19;6.43;;;1.80;;
77769;SDS011;66961;51.482;9.160;2024-02-14T02:00:45;3.30;;;1.85;;
77769;SDS011;66961;51.482;9.160;2024-02-14T02:03:10;6.07;;;1.90;;
77769;SDS011;66961;51.482;9.160;2024-02-14T02:05:36;3.90;;;1.73;;
77769;SDS011;66961;51.482;9.160;2024-02-14T02:08:01;4.47;;;2.30;;
77769;SDS011;66961;51.482;9.160;2024-02-14T02:10:26;4.30;;;1.63;;
77769;SDS011;66961;51.482;9.160;2024-02-14T02:12:57;4.97;;;1.97;;
77769;SDS011;66961;51.482;9.160;2024-02-14T02:15:23;7.03;;;1.65;;
77769;SDS011;66961;51.482;9.160;2024-02-14T02:17:48;4.33;;;1.80;;
77769;SDS011;66961;51.482;9.160;2024-02-14T02:20:13;4.57;;;1.90;;
77769;SDS011;66961;51.482;9.160;2024-02-14T02:22:45;2.95;;;1.40;;
77769;SDS011;66961;51.482;9.160;2024-02-14T02:25:11;3.92;;;1.75;;
77769;SDS011;66961;51.482;9.160;2024-02-14T02:27:36;5.80;;;2.10;;
77769;SDS011;66961;51.482;9.160;2024-02-14T02:30:02;3.53;;;1.80;;
77769;SDS011;66961;51.482;9.160;2024-02-14T02:32:27;4.75;;;1.63;;
77769;SDS011;66961;51.482;9.160;2024-02-14T02:34:52;4.60;;;1.60;;
77769;SDS011;66961;51.482;9.160;2024-02-14T02:37:17;4.20;;;1.60;;
77769;SDS011;66961;51.482;9.160;2024-02-14T02:39:43;3.73;;;1.60;;
77769;SDS011;66961;51.482;9.160;2024-02-14T02:42:08;6.07;;;2.38;;
77769;SDS011;66961;51.482;9.160;2024-02-14T02:44:33;4.33;;;1.60;;
77769;SDS011;66961;51.482;9.160;2024-02-14T02:46:59;3.70;;;1.57;;
77769;SDS011;66961;51.482;9.160;2024-02-14T02:49:24;3.20;;;1.60;;
77769;SDS011;66961;51.482;9.160;2024-02-14T02:51:49;5.33;;;1.90;;
77769;SDS011;66961;51.482;9.160;2024-02-14T02:54:14;4.30;;;1.70;;
77769;SDS011;66961;51.482;9.160;2024-02-14T02:56:40;2.33;;;1.50;;
77769;SDS011;66961;51.482;9.160;2024-02-14T02:59:05;4.00;;;1.77;;
77769;SDS011;66961;51.482;9.160;2024-02-14T03:01:36;2.27;;;1.30;;
77769;SDS011;66961;51.482;9.160;2024-02-14T03:04:02;5.18;;;1.35;;
77769;SDS011;66961;51.482;9.160;2024-02-14T03:06:27;3.10;;;1.73;;
77769;SDS011;66961;51.482;9.160;2024-02-14T03:08:53;4.83;;;1.70;;
77769;SDS011;66961;51.482;9.160;2024-02-14T03:11:18;3.37;;;1.33;;
77769;SDS011;66961;51.482;9.160;2024-02-14T03:13:43;3.47;;;1.67;;
77769;SDS011;66961;51.482;9.160;2024-02-14T03:16:08;4.77;;;1.50;;
77769;SDS011;66961;51.482;9.160;2024-02-14T03:18:34;6.53;;;1.50;;
77769;SDS011;66961;51.482;9.160;2024-02-14T03:20:59;5.50;;;1.80;;
77769;SDS011;66961;51.482;9.160;2024-02-14T03:23:24;2.20;;;1.30;;
77769;SDS011;66961;51.482;9.160;2024-02-14T03:25:49;4.30;;;1.60;;
77769;SDS011;66961;51.482;9.160;2024-02-14T03:28:15;3.67;;;1.13;;
77769;SDS011;66961;51.482;9.160;2024-02-14T03:30:40;3.77;;;1.30;;
77769;SDS011;66961;51.482;9.160;2024-02-14T03:33:05;8.10;;;1.50;;
77769;SDS011;66961;51.482;9.160;2024-02-14T03:35:30;4.97;;;1.20;;
77769;SDS011;66961;51.482;9.160;2024-02-14T03:37:56;3.30;;;1.27;;
77769;SDS011;66961;51.482;9.160;2024-02-14T03:40:21;3.23;;;1.20;;
77769;SDS011;66961;51.482;9.160;2024-02-14T03:42:46;2.95;;;1.10;;
77769;SDS011;66961;51.482;9.160;2024-02-14T03:45:12;2.50;;;1.20;;
77769;SDS011;66961;51.482;9.160;2024-02-14T03:47:37;5.38;;;1.77;;
77769;SDS011;66961;51.482;9.160;2024-02-14T03:50:02;3.72;;;1.50;;
77769;SDS011;66961;51.482;9.160;2024-02-14T03:52:28;5.00;;;1.20;;
77769;SDS011;66961;51.482;9.160;2024-02-14T03:54:53;4.13;;;1.40;;
77769;SDS011;66961;51.482;9.160;2024-02-14T03:57:18;3.37;;;1.33;;
77769;SDS011;66961;51.482;9.160;2024-02-14T03:59:44;4.28;;;1.42;;
77769;SDS011;66961;51.482;9.160;2024-02-14T04:02:10;3.80;;;1.50;;
77769;SDS011;66961;51.482;9.160;2024-02-14T04:04:41;7.00;;;1.65;;
77769;SDS011;66961;51.482;9.160;2024-02-14T04:07:07;4.13;;;1.38;;
77769;SDS011;66961;51.482;9.160;2024-02-14T04:09:33;5.20;;;1.70;;
77769;SDS011;66961;51.482;9.160;2024-02-14T04:11:58;4.80;;;1.63;;
77769;SDS011;66961;51.482;9.160;2024-02-14T04:14:23;3.83;;;1.40;;
77769;SDS011;66961;51.482;9.160;2024-02-14T04:16:49;3.37;;;1.40;;
77769;SDS011;66961;51.482;9.160;2024-02-14T04:19:14;5.37;;;2.43;;
77769;SDS011;66961;51.482;9.160;2024-02-14T04:21:39;4.10;;;1.40;;
77769;SDS011;66961;51.482;9.160;2024-02-14T04:24:04;2.87;;;1.60;;
77769;SDS011;66961;51.482;9.160;2024-02-14T04:26:30;5.57;;;1.20;;
77769;SDS011;66961;51.482;9.160;2024-02-14T04:28:55;2.47;;;1.33;;
77769;SDS011;66961;51.482;9.160;2024-02-14T04:31:20;6.77;;;1.20;;
77769;SDS011;66961;51.482;9.160;2024-02-14T04:33:45;2.47;;;1.17;;
77769;SDS011;66961;51.482;9.160;2024-02-14T04:36:11;4.37;;;1.47;;
77769;SDS011;66961;51.482;9.160;2024-02-14T04:38:36;2.30;;;1.40;;
77769;SDS011;66961;51.482;9.160;2024-02-14T04:41:01;3.95;;;1.42;;
77769;SDS011;66961;51.482;9.160;2024-02-14T04:43:26;6.27;;;1.47;;
77769;SDS011;66961;51.482;9.160;2024-02-14T04:45:52;3.90;;;1.40;;
77769;SDS011;66961;51.482;9.160;2024-02-14T04:48:17;4.35;;;1.55;;
77769;SDS011;66961;51.482;9.160;2024-02-14T04:50:43;5.03;;;2.00;;
77769;SDS011;66961;51.482;9.160;2024-02-14T04:53:08;4.73;;;1.63;;
77769;SDS011;66961;51.482;9.160;2024-02-14T04:55:33;5.13;;;1.73;;
77769;SDS011;66961;51.482;9.160;2024-02-14T04:57:58;6.10;;;1.50;;
77769;SDS011;66961;51.482;9.160;2024-02-14T05:00:24;3.43;;;1.60;;
77769;SDS011;66961;51.482;9.160;2024-02-14T05:02:49;5.13;;;1.80;;
77769;SDS011;66961;51.482;9.160;2024-02-14T05:05:14;2.80;;;1.60;;
77769;SDS011;66961;51.482;9.160;2024-02-14T05:07:39;3.55;;;1.65;;
77769;SDS011;66961;51.482;9.160;2024-02-14T05:10:05;3.70;;;1.70;;
77769;SDS011;66961;51.482;9.160;2024-02-14T05:12:31;6.13;;;2.10;;
77769;SDS011;66961;51.482;9.160;2024-02-14T05:14:56;5.33;;;1.40;;
77769;SDS011;66961;51.482;9.160;2024-02-14T05:17:21;5.07;;;1.60;;
77769;SDS011;66961;51.482;9.160;2024-02-14T05:19:46;4.20;;;1.77;;
77769;SDS011;66961;51.482;9.160;2024-02-14T05:22:12;2.83;;;1.40;;
77769;SDS011;66961;51.482;9.160;2024-02-14T05:24:37;2.53;;;1.53;;
77769;SDS011;66961;51.482;9.160;2024-02-14T05:27:02;4.00;;;1.67;;
77769;SDS011;66961;51.482;9.160;2024-02-14T05:29:28;2.42;;;1.20;;
77769;SDS011;66961;51.482;9.160;2024-02-14T05:31:54;3.73;;;1.47;;
77769;SDS011;66961;51.482;9.160;2024-02-14T05:34:19;3.80;;;1.43;;
77769;SDS011;66961;51.482;9.160;2024-02-14T05:36:44;4.63;;;1.73;;
77769;SDS011;66961;51.482;9.160;2024-02-14T05:39:09;3.27;;;1.60;;
77769;SDS011;66961;51.482;9.160;2024-02-14T05:41:35;4.80;;;1.50;;
77769;SDS011;66961;51.482;9.160;2024-02-14T05:44:00;7.77;;;1.93;;
77769;SDS011;66961;51.482;9.160;2024-02-14T05:46:25;4.53;;;1.30;;
77769;SDS011;66961;51.482;9.160;2024-02-14T05:48:51;3.93;;;1.40;;
77769;SDS011;66961;51.482;9.160;2024-02-14T05:51:16;4.32;;;1.60;;
77769;SDS011;66961;51.482;9.160;2024-02-14T05:53:41;1.83;;;1.20;;
77769;SDS011;66961;51.482;9.160;2024-02-14T05:56:07;3.50;;;1.87;;
77769;SDS011;66961;51.482;9.160;2024-02-14T05:58:32;5.00;;;1.80;;
77769;SDS011;66961;51.482;9.160;2024-02-14T06:00:57;3.80;;;1.63;;
77769;SDS011;66961;51.482;9.160;2024-02-14T06:03:22;4.37;;;1.67;;
77769;SDS011;66961;51.482;9.160;2024-02-14T06:05:48;5.07;;;1.57;;
77769;SDS011;66961;51.482;9.160;2024-02-14T06:08:13;3.45;;;1.50;;
77769;SDS011;66961;51.482;9.160;2024-02-14T06:10:38;2.40;;;1.53;;
77769;SDS011;66961;51.482;9.160;2024-02-14T06:13:04;3.80;;;1.93;;
77769;SDS011;66961;51.482;9.160;2024-02-14T06:15:29;5.93;;;1.60;;
77769;SDS011;66961;51.482;9.160;2024-02-14T06:17:55;6.00;;;1.60;;
77769;SDS011;66961;51.482;9.160;2024-02-14T06:20:20;4.18;;;1.50;;
77769;SDS011;66961;51.482;9.160;2024-02-14T06:22:45;5.33;;;1.57;;
77769;SDS011;66961;51.482;9.160;2024-02-14T06:25:10;5.55;;;2.10;;
77769;SDS011;66961;51.482;9.160;2024-02-14T06:27:36;2.97;;;1.57;;
77769;SDS011;66961;51.482;9.160;2024-02-14T06:30:01;4.00;;;1.90;;
77769;SDS011;66961;51.482;9.160;2024-02-14T06:32:26;4.90;;;1.98;;
77769;SDS011;66961;51.482;9.160;2024-02-14T06:34:52;4.67;;;1.87;;
77769;SDS011;66961;51.482;9.160;2024-02-14T06:37:17;7.85;;;2.00;;
77769;SDS011;66961;51.482;9.160;2024-02-14T06:39:42;7.80;;;2.10;;
77769;SDS011;66961;51.482;9.160;2024-02-14T06:42:08;3.17;;;1.60;;
77769;SDS011;66961;51.482;9.160;2024-02-14T06:44:33;4.43;;;1.93;;
77769;SDS011;66961;51.482;9.160;2024-02-14T06:46:58;3.40;;;1.67;;
77769;SDS011;66961;51.482;9.160;2024-02-14T06:49:23;3.03;;;2.00;;
77769;SDS011;66961;51.482;9.160;2024-02-14T06:51:49;3.77;;;1.50;;
77769;SDS011;66961;51.482;9.160;2024-02-14T06:54:14;4.13;;;1.80;;
77769;SDS011;66961;51.482;9.160;2024-02-14T06:56:39;3.50;;;1.53;;
77769;SDS011;66961;51.482;9.160;2024-02-14T06:59:04;2.53;;;1.53;;
77769;SDS011;66961;51.482;9.160;2024-02-14T07:01:30;3.90;;;1.70;;
77769;SDS011;66961;51.482;9.160;2024-02-14T07:03:55;3.60;;;1.60;;
77769;SDS011;66961;51.482;9.160;2024-02-14T07:06:20;3.20;;;1.63;;
77769;SDS011;66961;51.482;9.160;2024-02-14T07:08:46;5.73;;;1.53;;
77769;SDS011;66961;51.482;9.160;2024-02-14T07:11:11;3.33;;;1.70;;
77769;SDS011;66961;51.482;9.160;2024-02-14T07:13:37;3.23;;;1.77;;
77769;SDS011;66961;51.482;9.160;2024-02-14T07:16:02;5.53;;;1.83;;
77769;SDS011;66961;51.482;9.160;2024-02-14T07:18:27;2.30;;;1.50;;
77769;SDS011;66961;51.482;9.160;2024-02-14T07:20:54;4.20;;;1.70;;
77769;SDS011;66961;51.482;9.160;2024-02-14T07:23:20;3.63;;;2.33;;
77769;SDS011;66961;51.482;9.160;2024-02-14T07:25:45;4.30;;;2.22;;
77769;SDS011;66961;51.482;9.160;2024-02-14T07:28:10;9.38;;;4.28;;
77769;SDS011;66961;51.482;9.160;2024-02-14T07:30:36;5.97;;;3.42;;
77769;SDS011;66961;51.482;9.160;2024-02-14T07:33:01;13.75;;;5.80;;
77769;SDS011;66961;51.482;9.160;2024-02-14T07:35:26;10.75;;;5.15;;
77769;SDS011;66961;51.482;9.160;2024-02-14T07:37:52;4.40;;;2.50;;
77769;SDS011;66961;51.482;9.160;2024-02-14T07:40:17;5.27;;;2.13;;
77769;SDS011;66961;51.482;9.160;2024-02-14T07:42:42;11.17;;;5.30;;
77769;SDS011;66961;51.482;9.160;2024-02-14T07:45:07;6.63;;;3.90;;
77769;SDS011;66961;51.482;9.160;2024-02-14T07:47:33;6.90;;;3.20;;
77769;SDS011;66961;51.482;9.160;2024-02-14T07:49:58;8.50;;;4.07;;
77769;SDS011;66961;51.482;9.160;2024-02-14T07:52:23;9.03;;;3.40;;
77769;SDS011;66961;51.482;9.160;2024-02-14T07:54:52;5.88;;;2.63;;
77769;SDS011;66961;51.482;9.160;2024-02-14T07:57:18;8.43;;;3.50;;
77769;SDS011;66961;51.482;9.160;2024-02-14T07:59:43;3.13;;;1.83;;
77769;SDS011;66961;51.482;9.160;2024-02-14T08:02:08;4.23;;;1.83;;
77769;SDS011;66961;51.482;9.160;2024-02-14T08:04:34;2.70;;;1.98;;
77769;SDS011;66961;51.482;9.160;2024-02-14T08:06:59;2.60;;;1.70;;
77769;SDS011;66961;51.482;9.160;2024-02-14T08:09:24;2.67;;;1.87;;
77769;SDS011;66961;51.482;9.160;2024-02-14T08:11:50;4.00;;;1.23;;
77769;SDS011;66961;51.482;9.160;2024-02-14T08:14:15;3.67;;;1.67;;
77769;SDS011;66961;51.482;9.160;2024-02-14T08:16:40;2.20;;;1.47;;
77769;SDS011;66961;51.482;9.160;2024-02-14T08:19:05;3.00;;;1.67;;
77769;SDS011;66961;51.482;9.160;2024-02-14T08:21:31;5.00;;;1.87;;
77769;SDS011;66961;51.482;9.160;2024-02-14T08:23:56;4.03;;;1.80;;
77769;SDS011;66961;51.482;9.160;2024-02-14T08:26:21;3.10;;;1.83;;
77769;SDS011;66961;51.482;9.160;2024-02-14T08:28:47;4.03;;;1.77;;
77769;SDS011;66961;51.482;9.160;2024-02-14T08:31:12;4.10;;;1.40;;
77769;SDS011;66961;51.482;9.160;2024-02-14T08:33:37;3.10;;;1.40;;
77769;SDS011;66961;51.482;9.160;2024-02-14T08:36:03;2.93;;;1.77;;
77769;SDS011;66961;51.482;9.160;2024-02-14T08:38:29;3.95;;;2.45;;
77769;SDS011;66961;51.482;9.160;2024-02-14T08:40:54;5.03;;;2.00;;
77769;SDS011;66961;51.482;9.160;2024-02-14T08:43:20;3.43;;;1.50;;
77769;SDS011;66961;51.482;9.160;2024-02-14T08:45:45;3.10;;;1.58;;
77769;SDS011;66961;51.482;9.160;2024-02-14T08:48:10;2.70;;;1.37;;
77769;SDS011;66961;51.482;9.160;2024-02-14T08:50:36;1.63;;;1.10;;
77769;SDS011;66961;51.482;9.160;2024-02-14T08:53:01;3.73;;;1.40;;
77769;SDS011;66961;51.482;9.160;2024-02-14T08:55:26;3.60;;;1.30;;
77769;SDS011;66961;51.482;9.160;2024-02-14T08:57:52;2.97;;;1.37;;
77769;SDS011;66961;51.482;9.160;2024-02-14T09:00:17;3.67;;;1.33;;
77769;SDS011;66961;51.482;9.160;2024-02-14T09:02:42;1.73;;;1.17;;
77769;SDS011;66961;51.482;9.160;2024-02-14T09:05:08;2.10;;;1.20;;
77769;SDS011;66961;51.482;9.160;2024-02-14T09:07:33;3.70;;;1.33;;
77769;SDS011;66961;51.482;9.160;2024-02-14T09:09:58;3.63;;;1.47;;
77769;SDS011;66961;51.482;9.160;2024-02-14T09:12:23;3.27;;;1.07;;
77769;SDS011;66961;51.482;9.160;2024-02-14T09:14:49;2.50;;;1.20;;
77769;SDS011;66961;51.482;9.160;2024-02-14T09:17:15;1.83;;;0.90;;
77769;SDS011;66961;51.482;9.160;2024-02-14T09:19:40;1.55;;;1.00;;
77769;SDS011;66961;51.482;9.160;2024-02-14T09:22:06;1.83;;;0.90;;
77769;SDS011;66961;51.482;9.160;2024-02-14T09:24:31;1.83;;;0.80;;
77769;SDS011;66961;51.482;9.160;2024-02-14T09:26:56;2.72;;;1.10;;
77769;SDS011;66961;51.482;9.160;2024-02-14T09:29:22;1.70;;;0.80;;
77769;SDS011;66961;51.482;9.160;2024-02-14T09:31:47;2.57;;;0.83;;
77769;SDS011;66961;51.482;9.160;2024-02-14T09:34:12;2.23;;;1.00;;
77769;SDS011;66961;51.482;9.160;2024-02-14T09:36:38;1.20;;;0.80;;
77769;SDS011;66961;51.482;9.160;2024-02-14T09:39:03;1.17;;;0.83;;
77769;SDS011;66961;51.482;9.160;2024-02-14T09:41:31;1.73;;;1.00;;
77769;SDS011;66961;51.482;9.160;2024-02-14T09:43:58;1.48;;;0.90;;
77769;SDS011;66961;51.482;9.160;2024-02-14T09:46:24;1.58;;;0.95;;
77769;SDS011;66961;51.482;9.160;2024-02-14T09:48:49;1.67;;;0.90;;
77769;SDS011;66961;51.482;9.160;2024-02-14T09:51:17;2.58;;;1.00;;
77769;SDS011;66961;51.482;9.160;2024-02-14T09:53:42;1.90;;;1.00;;
77769;SDS011;66961;51.482;9.160;2024-02-14T09:56:10;2.08;;;1.00;;
77769;SDS011;66961;51.482;9.160;2024-02-14T09:58:36;1.88;;;0.80;;
77769;SDS011;66961;51.482;9.160;2024-02-14T10:01:02;1.23;;;0.77;;
77769;SDS011;66961;51.482;9.160;2024-02-14T10:03:28;1.98;;;0.95;;
77769;SDS011;66961;51.482;9.160;2024-02-14T10:05:53;2.35;;;0.90;;
77769;SDS011;66961;51.482;9.160;2024-02-14T10:08:19;1.15;;;0.70;;
77769;SDS011;66961;51.482;9.160;2024-02-14T10:10:44;2.00;;;0.87;;
77769;SDS011;66961;51.482;9.160;2024-02-14T10:13:09;2.97;;;1.63;;
77769;SDS011;66961;51.482;9.160;2024-02-14T10:15:35;1.33;;;0.80;;
77769;SDS011;66961;51.482;9.160;2024-02-14T10:18:00;1.75;;;1.13;;
77769;SDS011;66961;51.482;9.160;2024-02-14T10:20:26;3.28;;;1.92;;
77769;SDS011;66961;51.482;9.160;2024-02-14T10:22:52;1.52;;;1.23;;
77769;SDS011;66961;51.482;9.160;2024-02-14T10:25:25;4.43;;;2.45;;
77769;SDS011;66961;51.482;9.160;2024-02-14T10:27:51;1.77;;;1.10;;
77769;SDS011;66961;51.482;9.160;2024-02-14T10:30:16;3.33;;;1.70;;
77769;SDS011;66961;51.482;9.160;2024-02-14T10:32:41;1.70;;;1.10;;
77769;SDS011;66961;51.482;9.160;2024-02-14T10:35:07;3.55;;;1.52;;
77769;SDS011;66961;51.482;9.160;2024-02-14T10:37:32;2.42;;;2.00;;
77769;SDS011;66961;51.482;9.160;2024-02-14T10:39:58;4.00;;;2.42;;
77769;SDS011;66961;51.482;9.160;2024-02-14T10:42:26;2.38;;;1.48;;
77769;SDS011;66961;51.482;9.160;2024-02-14T10:44:51;3.53;;;2.60;;
77769;SDS011;66961;51.482;9.160;2024-02-14T10:47:18;2.13;;;1.23;;
77769;SDS011;66961;51.482;9.160;2024-02-14T10:49:45;3.63;;;2.30;;
77769;SDS011;66961;51.482;9.160;2024-02-14T10:52:12;2.25;;;1.40;;
77769;SDS011;66961;51.482;9.160;2024-02-14T10:54:41;3.70;;;2.25;;
77769;SDS011;66961;51.482;9.160;2024-02-14T10:57:11;4.75;;;3.00;;
77769;SDS011;66961;51.482;9.160;2024-02-14T10:59:36;2.72;;;1.67;;
77769;SDS011;66961;51.482;9.160;2024-02-14T11:02:09;6.20;;;3.85;;
77769;SDS011;66961;51.482;9.160;2024-02-14T11:04:35;4.57;;;2.50;;
77769;SDS011;66961;51.482;9.160;2024-02-14T11:07:01;3.63;;;2.20;;
77769;SDS011;66961;51.482;9.160;2024-02-14T11:09:32;4.35;;;1.80;;
77769;SDS011;66961;51.482;9.160;2024-02-14T11:12:00;3.47;;;1.55;;
77769;SDS011;66961;51.482;9.160;2024-02-14T11:14:25;1.95;;;1.20;;
77769;SDS011;66961;51.482;9.160;2024-02-14T11:19:29;2.20;;;1.50;;
77769;SDS011;66961;51.482;9.160;2024-02-14T11:21:58;1.60;;;1.20;;
77769;SDS011;66961;51.482;9.160;2024-02-14T11:24:27;3.78;;;1.52;;
77769;SDS011;66961;51.482;9.160;2024-02-14T11:26:54;1.88;;;1.30;;
77769;SDS011;66961;51.482;9.160;2024-02-14T11:29:21;1.70;;;1.15;;
77769;SDS011;66961;51.482;9.160;2024-02-14T11:31:59;2.65;;;1.80;;
77769;SDS011;66961;51.482;9.160;2024-02-14T11:34:26;1.58;;;1.10;;
77769;SDS011;66961;51.482;9.160;2024-02-14T11:36:52;1.80;;;1.10;;
77769;SDS011;66961;51.482;9.160;2024-02-14T11:39:17;2.23;;;1.50;;
77769;SDS011;66961;51.482;9.160;2024-02-14T11:41:42;2.27;;;1.40;;
77769;SDS011;66961;51.482;9.160;2024-02-14T11:44:08;1.20;;;1.00;;
77769;SDS011;66961;51.482;9.160;2024-02-14T11:46:33;2.85;;;1.83;;
77769;SDS011;66961;51.482;9.160;2024-02-14T11:49:01;5.53;;;2.95;;
77769;SDS011;66961;51.482;9.160;2024-02-14T11:51:28;5.13;;;3.33;;
77769;SDS011;66961;51.482;9.160;2024-02-14T11:53:54;4.10;;;2.92;;
77769;SDS011;66961;51.482;9.160;2024-02-14T11:56:20;9.50;;;3.08;;
77769;SDS011;66961;51.482;9.160;2024-02-14T11:58:48;6.03;;;3.88;;
77769;SDS011;66961;51.482;9.160;2024-02-14T12:01:13;2.70;;;1.02;;
77769;SDS011;66961;51.482;9.160;2024-02-14T12:03:38;2.88;;;1.48;;
77769;SDS011;66961;51.482;9.160;2024-02-14T12:06:04;5.00;;;2.85;;
77769;SDS011;66961;51.482;9.160;2024-02-14T12:08:29;2.72;;;1.52;;
77769;SDS011;66961;51.482;9.160;2024-02-14T12:10:55;2.88;;;1.08;;
77769;SDS011;66961;51.482;9.160;2024-02-14T12:13:20;1.87;;;1.00;;
77769;SDS011;66961;51.482;9.160;2024-02-14T12:15:50;2.25;;;1.00;;
77769;SDS011;66961;51.482;9.160;2024-02-14T12:18:16;2.05;;;1.00;;
77769;SDS011;66961;51.482;9.160;2024-02-14T12:20:42;2.10;;;0.93;;
77769;SDS011;66961;51.482;9.160;2024-02-14T12:23:07;2.35;;;0.90;;
77769;SDS011;66961;51.482;9.160;2024-02-14T12:25:38;1.95;;;0.88;;
77769;SDS011;66961;51.482;9.160;2024-02-14T12:28:03;3.90;;;1.10;;
77769;SDS011;66961;51.482;9.160;2024-02-14T12:30:42;2.47;;;0.80;;
77769;SDS011;66961;51.482;9.160;2024-02-14T12:33:09;1.63;;;1.02;;
77769;SDS011;66961;51.482;9.160;2024-02-14T12:35:35;2.78;;;1.38;;
77769;SDS011;66961;51.482;9.160;2024-02-14T12:38:00;3.70;;;2.50;;
77769;SDS011;66961;51.482;9.160;2024-02-14T12:40:26;4.00;;;2.97;;
77769;SDS011;66961;51.482;9.160;2024-02-14T12:42:51;1.90;;;1.13;;
77769;SDS011;66961;51.482;9.160;2024-02-14T12:45:16;2.37;;;1.00;;
77769;SDS011;66961;51.482;9.160;2024-02-14T12:47:42;6.73;;;1.67;;
77769;SDS011;66961;51.482;9.160;2024-02-14T12:50:07;2.33;;;1.10;;
77769;SDS011;66961;51.482;9.160;2024-02-14T12:52:32;1.38;;;0.65;;
77769;SDS011;66961;51.482;9.160;2024-02-14T12:54:58;2.23;;;0.90;;
77769;SDS011;66961;51.482;9.160;2024-02-14T12:57:23;3.47;;;1.10;;
77769;SDS011;66961;51.482;9.160;2024-02-14T12:59:48;2.73;;;0.90;;
77769;SDS011;66961;51.482;9.160;2024-02-14T13:02:13;3.43;;;1.30;;
77769;SDS011;66961;51.482;9.160;2024-02-14T13:04:39;1.67;;;1.10;;
77769;SDS011;66961;51.482;9.160;2024-02-14T13:07:04;4.57;;;1.30;;
77769;SDS011;66961;51.482;9.160;2024-02-14T13:09:29;1.90;;;0.95;;
77769;SDS011;66961;51.482;9.160;2024-02-14T13:11:55;2.83;;;1.30;;
77769;SDS011;66961;51.482;9.160;2024-02-14T13:14:20;2.13;;;1.00;;
77769;SDS011;66961;51.482;9.160;2024-02-14T13:16:45;2.53;;;1.10;;
77769;SDS011;66961;51.482;9.160;2024-02-14T13:19:10;4.07;;;1.03;;
77769;SDS011;66961;51.482;9.160;2024-02-14T13:21:36;2.00;;;0.93;;
77769;SDS011;66961;51.482;9.160;2024-02-14T13:24:01;3.07;;;1.33;;
77769;SDS011;66961;51.482;9.160;2024-02-14T13:26:26;2.07;;;1.00;;
77769;SDS011;66961;51.482;9.160;2024-02-14T13:28:51;2.33;;;0.70;;
77769;SDS011;66961;51.482;9.160;2024-02-14T13:31:17;3.83;;;1.10;;
77769;SDS011;66961;51.482;9.160;2024-02-14T13:33:42;10.20;;;5.00;;
77769;SDS011;66961;51.482;9.160;2024-02-14T13:36:07;20.33;;;9.03;;
77769;SDS011;66961;51.482;9.160;2024-02-14T13:38:33;17.83;;;9.00;;
77769;SDS011;66961;51.482;9.160;2024-02-14T13:40:58;8.75;;;4.93;;
77769;SDS011;66961;51.482;9.160;2024-02-14T13:43:23;11.87;;;6.50;;
77769;SDS011;66961;51.482;9.160;2024-02-14T13:45:48;6.80;;;4.60;;
77769;SDS011;66961;51.482;9.160;2024-02-14T13:48:14;1.63;;;1.00;;
77769;SDS011;66961;51.482;9.160;2024-02-14T13:50:39;1.60;;;0.83;;
77769;SDS011;66961;51.482;9.160;2024-02-14T13:53:07;3.65;;;1.10;;
77769;SDS011;66961;51.482;9.160;2024-02-14T13:55:33;2.00;;;0.75;;
77769;SDS011;66961;51.482;9.160;2024-02-14T13:57:58;3.03;;;0.77;;
77769;SDS011;66961;51.482;9.160;2024-02-14T14:00:23;1.75;;;0.95;;
77769;SDS011;66961;51.482;9.160;2024-02-14T14:02:49;2.73;;;0.70;;
77769;SDS011;66961;51.482;9.160;2024-02-14T14:05:14;4.30;;;0.80;;
77769;SDS011;66961;51.482;9.160;2024-02-14T14:07:40;1.65;;;0.50;;
77769;SDS011;66961;51.482;9.160;2024-02-14T14:10:06;1.75;;;1.05;;
77769;SDS011;66961;51.482;9.160;2024-02-14T14:12:32;2.30;;;0.90;;
77769;SDS011;66961;51.482;9.160;2024-02-14T14:14:58;1.35;;;0.80;;
77769;SDS011;66961;51.482;9.160;2024-02-14T14:17:23;3.00;;;0.98;;
77769;SDS011;66961;51.482;9.160;2024-02-14T14:19:48;3.03;;;0.70;;
77769;SDS011;66961;51.482;9.160;2024-02-14T14:22:14;1.97;;;0.60;;
77769;SDS011;66961;51.482;9.160;2024-02-14T14:24:39;2.07;;;0.60;;
77769;SDS011;66961;51.482;9.160;2024-02-14T14:27:04;4.10;;;0.60;;
77769;SDS011;66961;51.482;9.160;2024-02-14T14:29:29;1.37;;;0.60;;
77769;SDS011;66961;51.482;9.160;2024-02-14T14:31:55;1.53;;;0.63;;
77769;SDS011;66961;51.482;9.160;2024-02-14T14:34:20;2.50;;;0.90;;
77769;SDS011;66961;51.482;9.160;2024-02-14T14:36:46;3.30;;;1.58;;
77769;SDS011;66961;51.482;9.160;2024-02-14T14:39:11;4.87;;;1.80;;
77769;SDS011;66961;51.482;9.160;2024-02-14T14:41:37;1.70;;;0.63;;